createdAt,value
2024-03-16T00:00:08.877Z,10.238
2024-03-16T00:01:09.484Z,10.252
2024-03-16T00:02:09.566Z,10.268
2024-03-16T00:03:08.987Z,10.273
2024-03-16T00:04:09.870Z,10.292
2024-03-16T00:05:09.511Z,10.311
2024-03-16T00:08:09.035Z,10.238
2024-03-16T00:09:09.421Z,10.185
2024-03-16T00:10:09.341Z,10.158
2024-03-16T00:11:09.053Z,10.174
2024-03-16T00:12:09.594Z,10.188
2024-03-16T00:13:09.212Z,10.217
2024-03-16T00:14:09.846Z,10.212
2024-03-16T00:16:10.772Z,10.153
2024-03-16T00:17:09.387Z,10.126
2024-03-16T00:18:09.929Z,10.145
2024-03-16T00:19:09.849Z,10.118
2024-03-16T00:20:09.431Z,10.164
2024-03-16T00:22:09.882Z,10.113
2024-03-16T00:23:09.483Z,10.070
2024-03-16T00:24:08.802Z,10.089
2024-03-16T00:25:09.642Z,10.038
2024-03-16T00:26:09.382Z,10.035
2024-03-16T00:27:09.753Z,10.006
2024-03-16T00:28:09.485Z,9.987
2024-03-16T00:30:09.705Z,9.961
2024-03-16T00:31:12.604Z,9.923
2024-03-16T00:33:09.874Z,9.907
2024-03-16T00:34:09.610Z,9.918
2024-03-16T00:36:09.803Z,9.939
2024-03-16T00:37:09.526Z,9.961
2024-03-16T00:39:09.690Z,10.038
2024-03-16T00:40:09.245Z,10.062
2024-03-16T00:41:08.907Z,10.033
2024-03-16T00:42:09.383Z,10.022
2024-03-16T00:43:10.239Z,10.001
2024-03-16T00:44:09.862Z,9.998
2024-03-16T00:45:09.331Z,9.969
2024-03-16T00:46:10.077Z,9.950
2024-03-16T00:47:09.482Z,9.926
2024-03-16T00:48:09.199Z,9.929
2024-03-16T00:49:10.238Z,9.934
2024-03-16T00:50:09.816Z,9.907
2024-03-16T00:52:09.856Z,9.905
2024-03-16T00:53:09.279Z,9.907
2024-03-16T00:54:09.668Z,9.865
2024-03-16T00:55:09.642Z,9.907
2024-03-16T00:56:09.305Z,9.897
2024-03-16T00:57:09.729Z,9.950
2024-03-16T00:58:09.547Z,9.873
2024-03-16T00:59:09.187Z,9.851
2024-03-16T01:00:09.793Z,9.870
2024-03-16T01:01:09.629Z,9.857
2024-03-16T01:02:09.638Z,9.873
2024-03-16T01:03:08.963Z,9.857
2024-03-16T01:04:09.861Z,9.822
2024-03-16T01:06:08.993Z,9.849
2024-03-16T01:07:10.060Z,9.819
2024-03-16T01:08:09.581Z,9.833
2024-03-16T01:10:09.875Z,9.833
2024-03-16T01:11:09.245Z,9.843
2024-03-16T01:12:09.763Z,9.835
2024-03-16T01:13:09.707Z,9.833
2024-03-16T01:14:09.237Z,9.806
2024-03-16T01:15:09.701Z,9.817
2024-03-16T01:16:09.061Z,9.843
2024-03-16T01:17:09.515Z,9.870
2024-03-16T01:18:09.020Z,9.867
2024-03-16T01:19:10.133Z,9.808
2024-03-16T01:21:09.182Z,9.899
2024-03-16T01:22:10.000Z,9.921
2024-03-16T01:23:09.376Z,9.899
2024-03-16T01:24:09.678Z,9.907
2024-03-16T01:25:09.201Z,9.899
2024-03-16T01:26:08.746Z,9.945
2024-03-16T01:27:09.260Z,9.985
2024-03-16T01:28:09.940Z,9.998
2024-03-16T01:29:09.438Z,9.945
2024-03-16T01:30:08.804Z,9.934
2024-03-16T01:31:10.600Z,9.945
2024-03-16T01:32:09.175Z,9.974
2024-03-16T01:33:09.966Z,9.998
2024-03-16T01:34:09.828Z,9.939
2024-03-16T01:35:09.392Z,9.993
2024-03-16T01:36:09.813Z,9.971
2024-03-16T01:37:09.485Z,9.982
2024-03-16T01:38:09.069Z,9.974
2024-03-16T01:39:09.648Z,9.963
2024-03-16T01:40:09.493Z,9.870
2024-03-16T01:41:09.141Z,9.915
2024-03-16T01:42:09.574Z,9.947
2024-03-16T01:43:09.383Z,9.926
2024-03-16T01:44:08.914Z,9.939
2024-03-16T01:45:09.456Z,9.910
2024-03-16T01:46:09.328Z,9.939
2024-03-16T01:47:08.910Z,9.915
2024-03-16T01:48:09.689Z,9.950
2024-03-16T01:50:09.053Z,9.950
2024-03-16T01:51:11.089Z,9.966
2024-03-16T01:52:09.798Z,9.963
2024-03-16T01:53:09.146Z,9.955
2024-03-16T01:54:09.489Z,9.971
2024-03-16T01:55:09.180Z,9.993
2024-03-16T01:56:09.613Z,9.939
2024-03-16T01:57:08.977Z,9.950
2024-03-16T01:58:09.632Z,9.958
2024-03-16T02:00:09.853Z,10.035
2024-03-16T02:01:09.609Z,10.017
2024-03-16T02:04:09.398Z,9.961
2024-03-16T02:05:09.094Z,9.969
2024-03-16T02:06:09.429Z,9.923
2024-03-16T02:07:09.001Z,9.915
2024-03-16T02:08:09.637Z,9.971
2024-03-16T02:09:08.910Z,9.993
2024-03-16T02:10:10.386Z,9.961
2024-03-16T02:11:09.503Z,9.982
2024-03-16T02:12:08.958Z,9.958
2024-03-16T02:13:09.886Z,9.945
2024-03-16T02:14:09.390Z,9.950
2024-03-16T02:15:09.812Z,10.009
2024-03-16T02:16:09.456Z,9.961
2024-03-16T02:17:09.262Z,9.945
2024-03-16T02:18:10.263Z,9.921
2024-03-16T02:19:10.153Z,9.899
2024-03-16T02:21:09.095Z,9.878
2024-03-16T02:22:09.890Z,9.867
2024-03-16T02:23:09.329Z,9.819
2024-03-16T02:24:09.150Z,9.833
2024-03-16T02:25:10.167Z,9.766
2024-03-16T02:27:09.232Z,9.696
2024-03-16T02:28:10.128Z,9.667
2024-03-16T02:29:09.583Z,9.683
2024-03-16T02:30:08.901Z,9.694
2024-03-16T02:31:09.670Z,9.683
2024-03-16T02:32:09.260Z,9.648
2024-03-16T02:33:10.121Z,9.614
2024-03-16T02:34:09.080Z,9.646
2024-03-16T02:35:09.664Z,9.587
2024-03-16T02:36:08.896Z,9.539
2024-03-16T02:37:10.121Z,9.630
2024-03-16T02:39:09.420Z,9.595
2024-03-16T02:40:10.467Z,9.582
2024-03-16T02:41:09.173Z,9.541
2024-03-16T02:42:09.480Z,9.504
2024-03-16T02:43:09.001Z,9.504
2024-03-16T02:44:09.691Z,9.459
2024-03-16T02:45:09.001Z,9.456
2024-03-16T02:46:09.869Z,9.491
2024-03-16T02:47:09.444Z,9.520
2024-03-16T02:48:10.150Z,9.560
2024-03-16T02:50:09.629Z,9.630
2024-03-16T02:51:09.010Z,9.694
2024-03-16T02:52:09.719Z,9.739
2024-03-16T02:53:09.305Z,9.758
2024-03-16T02:54:09.756Z,9.720
2024-03-16T02:55:09.463Z,9.742
2024-03-16T02:56:08.906Z,9.720
2024-03-16T02:57:09.410Z,9.720
2024-03-16T02:58:10.243Z,9.696
2024-03-16T02:59:09.661Z,9.675
2024-03-16T03:00:09.356Z,9.694
2024-03-16T03:01:10.354Z,9.648
2024-03-16T03:02:09.461Z,9.622
2024-03-16T03:03:08.844Z,9.638
2024-03-16T03:04:09.824Z,9.608
2024-03-16T03:06:09.762Z,9.517
2024-03-16T03:07:09.784Z,9.483
2024-03-16T03:08:09.277Z,9.475
2024-03-16T03:09:09.708Z,9.427
2024-03-16T03:10:09.721Z,9.416
2024-03-16T03:11:09.643Z,9.405
2024-03-16T03:12:09.137Z,9.429
2024-03-16T03:13:09.976Z,9.432
2024-03-16T03:14:09.644Z,9.405
2024-03-16T03:15:08.982Z,9.389
2024-03-16T03:16:09.617Z,9.363
2024-03-16T03:17:09.008Z,9.421
2024-03-16T03:18:09.873Z,9.392
2024-03-16T03:19:10.121Z,9.408
2024-03-16T03:20:09.643Z,9.395
2024-03-16T03:22:09.981Z,9.365
2024-03-16T03:24:09.421Z,9.304
2024-03-16T03:25:10.508Z,9.274
2024-03-16T03:26:08.935Z,9.213
2024-03-16T03:27:09.390Z,9.194
2024-03-16T03:28:10.249Z,9.208
2024-03-16T03:29:08.854Z,9.202
2024-03-16T03:30:09.169Z,9.138
2024-03-16T03:31:10.059Z,9.144
2024-03-16T03:32:09.653Z,9.173
2024-03-16T03:33:09.149Z,9.186
2024-03-16T03:35:09.799Z,9.138
2024-03-16T03:36:09.202Z,9.122
2024-03-16T03:37:09.735Z,9.021
2024-03-16T03:38:09.174Z,9.013
2024-03-16T03:39:09.570Z,8.981
2024-03-16T03:40:09.431Z,8.909
2024-03-16T03:42:09.430Z,8.943
2024-03-16T03:43:09.558Z,8.890
2024-03-16T03:45:09.664Z,8.901
2024-03-16T03:46:09.970Z,8.882
2024-03-16T03:47:09.355Z,8.842
2024-03-16T03:48:10.190Z,8.839
2024-03-16T03:49:09.908Z,8.957
2024-03-16T03:50:09.442Z,8.930
2024-03-16T03:51:08.841Z,8.967
2024-03-16T03:52:12.922Z,8.954
2024-03-16T03:53:09.932Z,9.026
2024-03-16T03:55:10.275Z,8.989
2024-03-16T03:56:08.782Z,8.994
2024-03-16T03:57:09.151Z,9.005
2024-03-16T03:58:09.913Z,9.029
2024-03-16T04:00:09.253Z,9.015
2024-03-16T04:01:10.306Z,9.050
2024-03-16T04:02:09.560Z,9.034
2024-03-16T04:03:08.839Z,9.039
2024-03-16T04:04:09.796Z,9.026
2024-03-16T04:05:09.446Z,9.082
2024-03-16T04:06:09.869Z,9.096
2024-03-16T04:07:09.504Z,9.109
2024-03-16T04:08:09.179Z,9.101
2024-03-16T04:09:09.606Z,9.101
2024-03-16T04:10:09.381Z,9.085
2024-03-16T04:11:09.935Z,9.074
2024-03-16T04:13:09.321Z,9.063
2024-03-16T04:14:09.781Z,9.053
2024-03-16T04:15:09.149Z,9.074
2024-03-16T04:16:09.882Z,9.021
2024-03-16T04:17:09.799Z,9.031
2024-03-16T04:18:09.406Z,8.991
2024-03-16T04:19:09.692Z,9.013
2024-03-16T04:20:09.585Z,9.005
2024-03-16T04:21:09.306Z,9.055
2024-03-16T04:22:10.019Z,9.013
2024-03-16T04:23:09.382Z,8.975
2024-03-16T04:24:09.790Z,9.005
2024-03-16T04:25:09.432Z,9.055
2024-03-16T04:26:08.938Z,9.047
2024-03-16T04:27:09.333Z,9.029
2024-03-16T04:28:10.373Z,8.983
2024-03-16T04:29:09.962Z,9.010
2024-03-16T04:30:09.462Z,9.021
2024-03-16T04:31:08.921Z,9.021
2024-03-16T04:32:09.410Z,9.034
2024-03-16T04:33:10.116Z,9.069
2024-03-16T04:34:09.783Z,9.069
2024-03-16T04:35:09.499Z,9.047
2024-03-16T04:37:09.533Z,9.021
2024-03-16T04:38:09.090Z,9.077
2024-03-16T04:39:09.464Z,9.082
2024-03-16T04:40:10.354Z,9.085
2024-03-16T04:41:09.091Z,9.066
2024-03-16T04:42:09.595Z,9.088
2024-03-16T04:43:09.177Z,8.997
2024-03-16T04:44:08.901Z,8.989
2024-03-16T04:45:09.430Z,8.991
2024-03-16T04:46:10.257Z,8.994
2024-03-16T04:47:08.846Z,8.975
2024-03-16T04:48:09.438Z,8.957
2024-03-16T04:49:09.248Z,8.935
2024-03-16T04:51:09.473Z,8.909
2024-03-16T04:52:09.500Z,8.917
2024-03-16T04:53:08.953Z,8.909
2024-03-16T04:54:09.298Z,8.909
2024-03-16T04:55:10.441Z,8.951
2024-03-16T04:56:09.163Z,8.962
2024-03-16T04:57:09.580Z,9.010
2024-03-16T04:58:09.294Z,9.013
2024-03-16T05:01:09.639Z,9.077
2024-03-16T05:03:08.893Z,9.104
2024-03-16T05:04:09.925Z,9.112
2024-03-16T05:05:09.567Z,9.136
2024-03-16T05:07:09.618Z,9.130
2024-03-16T05:08:09.344Z,9.128
2024-03-16T05:09:09.772Z,9.149
2024-03-16T05:10:09.302Z,9.144
2024-03-16T05:11:09.450Z,9.176
2024-03-16T05:12:09.253Z,9.162
2024-03-16T05:13:10.002Z,9.202
2024-03-16T05:15:08.993Z,9.160
2024-03-16T05:16:09.682Z,9.202
2024-03-16T05:17:09.302Z,9.250
2024-03-16T05:18:09.834Z,9.253
2024-03-16T05:19:09.643Z,9.226
2024-03-16T05:21:09.772Z,9.194
2024-03-16T05:22:12.185Z,9.130
2024-03-16T05:23:09.784Z,9.104
2024-03-16T05:26:08.918Z,9.069
2024-03-16T05:27:09.397Z,9.018
2024-03-16T05:28:09.958Z,8.994
2024-03-16T05:29:09.584Z,8.973
2024-03-16T05:30:09.272Z,8.951
2024-03-16T05:31:10.160Z,8.903
2024-03-16T05:32:09.641Z,8.933
2024-03-16T05:33:09.115Z,8.903
2024-03-16T05:34:10.020Z,8.893
2024-03-16T05:35:09.879Z,8.887
2024-03-16T05:37:10.260Z,8.855
2024-03-16T05:38:08.880Z,8.869
2024-03-16T05:39:09.328Z,8.869
2024-03-16T05:40:10.128Z,8.850
2024-03-16T05:41:09.711Z,8.842
2024-03-16T05:42:09.347Z,8.836
2024-03-16T05:43:10.075Z,8.820
2024-03-16T05:44:09.717Z,8.807
2024-03-16T05:47:09.471Z,8.810
2024-03-16T05:48:09.073Z,8.812
2024-03-16T05:49:09.824Z,8.786
2024-03-16T05:51:08.899Z,8.861
2024-03-16T05:52:09.705Z,8.885
2024-03-16T05:53:09.574Z,8.845
2024-03-16T05:54:08.942Z,8.855
2024-03-16T05:55:09.896Z,8.882
2024-03-16T05:57:09.136Z,8.903
2024-03-16T05:58:10.017Z,8.901
2024-03-16T05:59:09.449Z,8.874
2024-03-16T06:00:08.870Z,8.914
2024-03-16T06:01:09.617Z,8.885
2024-03-16T06:02:09.398Z,8.911
2024-03-16T06:03:08.891Z,8.911
2024-03-16T06:04:09.535Z,8.919
2024-03-16T06:05:09.155Z,8.933
2024-03-16T06:06:09.540Z,8.951
2024-03-16T06:07:09.119Z,8.965
2024-03-16T06:08:09.728Z,8.978
2024-03-16T06:09:13.889Z,8.989
2024-03-16T06:11:09.694Z,9.021
2024-03-16T06:12:09.267Z,9.007
2024-03-16T06:13:09.777Z,9.021
2024-03-16T06:14:09.459Z,9.063
2024-03-16T06:15:09.749Z,9.069
2024-03-16T06:16:09.457Z,9.063
2024-03-16T06:18:09.649Z,9.039
2024-03-16T06:19:09.665Z,9.098
2024-03-16T06:20:09.187Z,9.117
2024-03-16T06:21:09.557Z,9.109
2024-03-16T06:23:10.092Z,9.093
2024-03-16T06:24:09.434Z,9.096
2024-03-16T06:25:10.127Z,9.162
2024-03-16T06:26:09.696Z,9.170
2024-03-16T06:28:11.061Z,9.192
2024-03-16T06:29:09.535Z,9.186
2024-03-16T06:31:09.356Z,9.224
2024-03-16T06:32:09.463Z,9.248
2024-03-16T06:33:10.611Z,9.234
2024-03-16T06:34:09.759Z,9.218
2024-03-16T06:36:09.714Z,9.250
2024-03-16T06:37:09.093Z,9.298
2024-03-16T06:38:09.543Z,9.269
2024-03-16T06:39:08.783Z,9.274
2024-03-16T06:40:09.871Z,9.331
2024-03-16T06:41:09.415Z,9.344
2024-03-16T06:42:09.820Z,9.339
2024-03-16T06:43:09.501Z,9.392
2024-03-16T06:44:08.939Z,9.411
2024-03-16T06:45:09.201Z,9.451
2024-03-16T06:46:09.858Z,9.464
2024-03-16T06:47:09.471Z,9.472
2024-03-16T06:48:08.802Z,9.544
2024-03-16T06:49:10.786Z,9.501
2024-03-16T06:50:09.307Z,9.560
2024-03-16T06:51:09.605Z,9.592
2024-03-16T06:52:09.105Z,9.584
2024-03-16T06:53:09.688Z,9.656
2024-03-16T06:55:09.500Z,9.747
2024-03-16T06:56:08.930Z,9.795
2024-03-16T06:57:09.230Z,9.881
2024-03-16T06:58:09.818Z,9.910
2024-03-16T06:59:09.787Z,9.894
2024-03-16T07:00:09.156Z,9.897
2024-03-16T07:01:09.943Z,9.883
2024-03-16T07:02:09.656Z,9.974
2024-03-16T07:03:09.036Z,10.054
2024-03-16T07:04:09.868Z,10.009
2024-03-16T07:05:08.943Z,10.161
2024-03-16T07:06:09.286Z,10.073
2024-03-16T07:07:09.915Z,10.092
2024-03-16T07:08:09.638Z,10.142
2024-03-16T07:09:08.982Z,10.238
2024-03-16T07:10:10.000Z,10.180
2024-03-16T07:11:09.108Z,10.222
2024-03-16T07:12:09.635Z,10.161
2024-03-16T07:13:09.030Z,10.174
2024-03-16T07:14:09.509Z,10.313
2024-03-16T07:15:08.832Z,10.351
2024-03-16T07:16:09.552Z,10.383
2024-03-16T07:17:09.025Z,10.361
2024-03-16T07:18:09.692Z,10.465
2024-03-16T07:19:09.816Z,10.294
2024-03-16T07:20:09.680Z,10.388
2024-03-16T07:21:08.959Z,10.487
2024-03-16T07:22:09.635Z,10.546
2024-03-16T07:23:09.412Z,10.428
2024-03-16T07:24:09.867Z,10.388
2024-03-16T07:25:09.471Z,10.460
2024-03-16T07:26:09.382Z,10.377
2024-03-16T07:27:09.632Z,10.444
2024-03-16T07:28:09.575Z,10.457
2024-03-16T07:29:09.075Z,10.479
2024-03-16T07:30:09.459Z,10.543
2024-03-16T07:31:10.398Z,10.650
2024-03-16T07:32:09.178Z,10.668
2024-03-16T07:33:09.933Z,10.783
2024-03-16T07:34:09.558Z,10.885
2024-03-16T07:35:08.927Z,10.906
2024-03-16T07:36:09.289Z,10.906
2024-03-16T07:37:09.855Z,11.130
2024-03-16T07:38:09.647Z,11.064
2024-03-16T07:39:08.914Z,11.032
2024-03-16T07:40:09.500Z,10.927
2024-03-16T07:41:09.328Z,10.989
2024-03-16T07:42:09.597Z,11.021
2024-03-16T07:43:09.347Z,10.877
2024-03-16T07:44:08.900Z,10.837
2024-03-16T07:45:09.318Z,11.085
2024-03-16T07:46:10.026Z,11.146
2024-03-16T07:47:09.533Z,11.053
2024-03-16T07:48:08.971Z,11.152
2024-03-16T07:49:14.953Z,11.162
2024-03-16T07:51:09.668Z,11.205
2024-03-16T07:52:09.485Z,11.266
2024-03-16T07:54:09.499Z,11.376
2024-03-16T07:55:09.044Z,11.173
2024-03-16T07:56:09.496Z,11.339
2024-03-16T07:57:08.929Z,11.413
2024-03-16T07:58:09.565Z,11.373
2024-03-16T08:00:09.744Z,11.355
2024-03-16T08:01:09.452Z,11.432
2024-03-16T08:02:09.232Z,11.395
2024-03-16T08:03:09.409Z,11.320
2024-03-16T08:06:09.773Z,11.376
2024-03-16T08:07:09.216Z,11.213
2024-03-16T08:08:09.758Z,11.237
2024-03-16T08:09:09.102Z,11.168
2024-03-16T08:10:09.750Z,11.146
2024-03-16T08:11:09.489Z,11.253
2024-03-16T08:14:09.820Z,11.429
2024-03-16T08:15:09.331Z,11.558
2024-03-16T08:16:10.290Z,11.387
2024-03-16T08:17:09.011Z,11.264
2024-03-16T08:18:09.565Z,11.432
2024-03-16T08:19:09.702Z,11.507
2024-03-16T08:21:13.024Z,11.469
2024-03-16T08:23:09.765Z,11.400
2024-03-16T08:24:09.070Z,11.472
2024-03-16T08:25:09.797Z,11.448
2024-03-16T08:26:09.164Z,11.424
2024-03-16T08:27:09.441Z,11.379
2024-03-16T08:28:10.278Z,11.387
2024-03-16T08:29:09.816Z,11.472
2024-03-16T08:30:09.366Z,11.226
2024-03-16T08:31:10.042Z,11.275
2024-03-16T08:33:09.115Z,11.360
2024-03-16T08:34:09.457Z,11.205
2024-03-16T08:35:08.933Z,11.120
2024-03-16T08:36:09.364Z,11.189
2024-03-16T08:37:10.234Z,11.130
2024-03-16T08:38:08.876Z,10.999
2024-03-16T08:39:09.430Z,11.021
2024-03-16T08:40:10.483Z,10.965
2024-03-16T08:41:11.648Z,10.989
2024-03-16T08:42:09.256Z,10.973
2024-03-16T08:45:08.898Z,10.962
2024-03-16T08:46:09.687Z,10.890
2024-03-16T08:47:09.364Z,10.786
2024-03-16T08:48:10.221Z,10.703
2024-03-16T08:49:09.136Z,10.671
2024-03-16T08:50:09.852Z,10.527
2024-03-16T08:52:09.954Z,10.348
2024-03-16T08:53:09.702Z,10.217
2024-03-16T08:54:09.122Z,9.993
2024-03-16T08:55:10.252Z,9.913
2024-03-16T08:57:09.347Z,9.779
2024-03-16T08:58:09.461Z,9.750
2024-03-16T08:59:09.104Z,9.707
2024-03-16T09:00:09.406Z,9.720
2024-03-16T09:01:09.440Z,9.691
2024-03-16T09:02:09.317Z,9.803
2024-03-16T09:03:09.752Z,9.728
2024-03-16T09:05:09.864Z,9.867
2024-03-16T09:06:09.182Z,9.779
2024-03-16T09:07:09.736Z,9.862
2024-03-16T09:08:09.444Z,9.854
2024-03-16T09:09:09.768Z,9.859
2024-03-16T09:10:09.639Z,9.774
2024-03-16T09:11:09.037Z,9.886
2024-03-16T09:12:09.441Z,9.814
2024-03-16T09:13:08.949Z,9.768
2024-03-16T09:14:09.523Z,9.768
2024-03-16T09:15:08.844Z,9.763
2024-03-16T09:16:10.273Z,9.854
2024-03-16T09:17:08.954Z,9.758
2024-03-16T09:18:09.547Z,9.873
2024-03-16T09:19:09.434Z,9.953
2024-03-16T09:20:09.711Z,9.950
2024-03-16T09:21:09.936Z,10.049
2024-03-16T09:22:09.572Z,10.033
2024-03-16T09:23:09.120Z,10.060
2024-03-16T09:25:10.805Z,10.177
2024-03-16T09:26:09.278Z,10.265
2024-03-16T09:27:09.602Z,10.417
2024-03-16T09:28:09.048Z,10.425
2024-03-16T09:29:09.617Z,10.543
2024-03-16T09:30:08.978Z,10.586
2024-03-16T09:31:09.711Z,10.676
2024-03-16T09:32:09.249Z,10.834
2024-03-16T09:33:09.933Z,10.815
2024-03-16T09:34:09.706Z,10.714
2024-03-16T09:35:09.316Z,10.874
2024-03-16T09:36:09.093Z,10.970
2024-03-16T09:37:09.518Z,10.922
2024-03-16T09:39:09.607Z,11.229
2024-03-16T09:40:08.992Z,11.365
2024-03-16T09:41:09.514Z,11.400
2024-03-16T09:42:08.829Z,11.560
2024-03-16T09:43:21.836Z,11.761
2024-03-16T09:44:50.258Z,11.774
2024-03-16T09:46:26.108Z,11.835
2024-03-16T09:48:43.217Z,12.140
2024-03-16T09:49:47.222Z,12.164
2024-03-16T09:51:54.103Z,12.028
2024-03-16T09:52:47.573Z,12.097
2024-03-16T09:54:12.845Z,12.124
2024-03-16T09:55:17.224Z,12.281
2024-03-16T09:56:44.927Z,11.883
2024-03-16T09:58:23.659Z,12.001
2024-03-16T10:02:08.472Z,12.431
2024-03-16T10:03:28.647Z,12.343
2024-03-16T10:05:41.405Z,12.041
2024-03-16T10:07:38.467Z,12.185
2024-03-16T10:09:21.234Z,12.401
2024-03-16T10:11:09.305Z,12.396
2024-03-16T10:11:53.022Z,12.447
2024-03-16T10:12:12.449Z,12.484
2024-03-16T10:13:55.187Z,12.340
2024-03-16T10:15:08.719Z,12.447
2024-03-16T10:18:36.121Z,12.578
2024-03-16T10:21:12.392Z,12.535
2024-03-16T10:21:28.178Z,12.596
2024-03-16T10:24:21.843Z,12.738
2024-03-16T10:25:44.945Z,12.810
2024-03-16T10:27:08.626Z,13.045
2024-03-16T10:28:15.769Z,12.925
2024-03-16T10:29:18.994Z,13.008
2024-03-16T10:30:19.048Z,12.925
2024-03-16T10:32:00.501Z,13.251
2024-03-16T10:33:19.205Z,13.437
2024-03-16T10:34:41.120Z,13.224
2024-03-16T10:35:53.800Z,13.227
2024-03-16T10:36:18.449Z,13.320
2024-03-16T10:37:20.303Z,13.026
2024-03-16T10:39:58.226Z,12.853
2024-03-16T10:41:09.149Z,12.893
2024-03-16T10:43:26.785Z,12.599
2024-03-16T10:45:42.424Z,12.941
2024-03-16T10:47:30.332Z,13.042
2024-03-16T10:48:57.913Z,13.090
2024-03-16T10:50:53.915Z,13.117
2024-03-16T10:53:17.165Z,12.925
2024-03-16T10:55:45.453Z,12.874
2024-03-16T10:56:29.773Z,13.128
2024-03-16T10:58:19.773Z,13.216
2024-03-16T11:01:00.176Z,13.606
2024-03-16T11:02:31.816Z,12.919
2024-03-16T11:03:27.221Z,12.583
2024-03-16T11:05:00.798Z,12.762
2024-03-16T11:08:10.166Z,12.591
2024-03-16T11:12:10.222Z,11.801
2024-03-16T11:15:39.027Z,11.622
2024-03-16T11:16:41.347Z,11.635
2024-03-16T11:17:55.506Z,11.763
2024-03-16T11:20:21.537Z,12.153
2024-03-16T11:22:24.076Z,12.300
2024-03-16T11:23:20.046Z,12.578
2024-03-16T11:27:35.148Z,12.457
2024-03-16T11:29:07.848Z,12.749
2024-03-16T11:33:10.560Z,13.376
2024-03-16T11:33:44.673Z,13.277
2024-03-16T11:37:44.269Z,13.542
2024-03-16T11:38:42.735Z,13.245
2024-03-16T11:39:59.125Z,13.235
2024-03-16T11:41:38.254Z,13.045
2024-03-16T11:42:58.291Z,13.154
2024-03-16T11:44:18.557Z,13.093
2024-03-16T11:46:14.388Z,13.005
2024-03-16T11:49:27.076Z,13.656
2024-03-16T11:50:35.564Z,13.931
2024-03-16T11:51:38.591Z,14.169
2024-03-16T11:53:42.985Z,14.508
2024-03-16T11:55:14.416Z,14.185
2024-03-16T11:56:31.886Z,13.667
2024-03-16T11:57:40.440Z,13.937
2024-03-16T11:58:48.641Z,13.731
2024-03-16T11:59:29.371Z,13.956
2024-03-16T12:00:32.334Z,14.126
2024-03-16T12:02:03.526Z,14.516
2024-03-16T12:04:45.533Z,14.791
2024-03-16T12:05:50.617Z,14.524
2024-03-16T12:07:18.682Z,14.335
2024-03-16T12:08:22.530Z,14.353
2024-03-16T12:09:22.608Z,14.516
2024-03-16T12:12:20.198Z,15.221
2024-03-16T12:15:26.195Z,14.201
2024-03-16T12:17:28.979Z,13.696
2024-03-16T12:18:43.293Z,13.347
2024-03-16T12:19:47.292Z,12.992
2024-03-16T12:21:21.202Z,13.128
2024-03-16T12:25:00.201Z,13.389
2024-03-16T12:27:09.962Z,13.526
2024-03-16T12:28:38.172Z,13.416
2024-03-16T12:30:59.477Z,13.352
2024-03-16T12:31:20.353Z,13.387
2024-03-16T12:32:47.229Z,13.357
2024-03-16T12:33:56.317Z,13.555
2024-03-16T12:34:13.229Z,13.640
2024-03-16T12:35:16.213Z,13.921
2024-03-16T12:37:16.705Z,14.631
2024-03-16T12:38:18.931Z,14.783
2024-03-16T12:39:51.015Z,14.596
2024-03-16T12:41:19.781Z,14.388
2024-03-16T12:45:08.975Z,13.921
2024-03-16T12:46:43.756Z,13.875
2024-03-16T12:48:19.268Z,13.590
2024-03-16T12:50:10.110Z,13.686
2024-03-16T12:51:34.045Z,13.790
2024-03-16T12:54:03.112Z,13.576
2024-03-16T12:55:22.814Z,13.403
2024-03-16T12:57:23.655Z,13.363
2024-03-16T13:01:46.783Z,14.105
2024-03-16T13:05:07.147Z,14.313
2024-03-16T13:06:10.216Z,14.108
2024-03-16T13:09:28.775Z,14.671
2024-03-16T13:10:31.986Z,14.428
2024-03-16T13:11:32.141Z,14.901
2024-03-16T13:13:15.508Z,15.096
2024-03-16T13:14:28.133Z,15.427
2024-03-16T13:15:48.362Z,16.054
2024-03-16T13:19:42.041Z,14.578
2024-03-16T13:20:54.712Z,14.508
2024-03-16T13:21:57.994Z,14.703
2024-03-16T13:23:25.689Z,14.911
2024-03-16T13:25:51.547Z,14.279
2024-03-16T13:27:39.476Z,14.452
2024-03-16T13:29:29.949Z,14.020
2024-03-16T13:33:38.210Z,13.907
2024-03-16T13:35:47.639Z,13.945
2024-03-16T13:36:58.833Z,14.199
2024-03-16T13:39:52.021Z,14.701
2024-03-16T13:40:19.424Z,14.767
2024-03-16T13:41:23.413Z,14.586
2024-03-16T13:42:29.125Z,14.289
2024-03-16T13:44:04.461Z,14.623
2024-03-16T13:45:31.751Z,14.642
2024-03-16T13:46:56.369Z,14.498
2024-03-16T13:48:28.796Z,14.612
2024-03-16T13:49:45.002Z,14.340
2024-03-16T13:54:28.887Z,13.817
2024-03-16T13:56:17.481Z,13.640
2024-03-16T13:56:53.062Z,13.806
2024-03-16T13:57:24.422Z,13.707
2024-03-16T13:59:15.162Z,13.462
2024-03-16T14:00:44.229Z,13.672
2024-03-16T14:01:16.848Z,13.790
2024-03-16T14:01:45.599Z,13.755
2024-03-16T14:06:42.824Z,13.667
2024-03-16T14:07:55.496Z,13.646
2024-03-16T14:08:33.607Z,13.518
2024-03-16T14:10:20.809Z,13.523
2024-03-16T14:11:09.204Z,13.312
2024-03-16T14:12:32.869Z,13.130
2024-03-16T14:13:34.893Z,13.251
2024-03-16T14:15:42.475Z,12.092
2024-03-16T14:19:37.213Z,10.110
2024-03-16T14:21:09.348Z,9.982
2024-03-16T14:22:41.301Z,9.662
2024-03-16T14:23:42.402Z,9.603
2024-03-16T14:27:45.775Z,9.461
2024-03-16T14:28:56.999Z,9.477
2024-03-16T14:31:07.114Z,9.384
2024-03-16T14:32:41.681Z,9.416
2024-03-16T14:35:47.785Z,9.467
2024-03-16T14:36:42.951Z,9.528
2024-03-16T14:37:59.569Z,9.459
2024-03-16T14:42:50.084Z,9.758
2024-03-16T14:44:18.216Z,9.667
2024-03-16T14:45:21.492Z,9.763
2024-03-16T14:46:59.526Z,9.881
2024-03-16T14:49:32.380Z,9.867
2024-03-16T14:51:12.704Z,9.934
2024-03-16T14:52:28.939Z,9.849
2024-03-16T14:54:33.225Z,9.955
2024-03-16T14:56:22.118Z,9.963
2024-03-16T14:56:54.002Z,10.009
2024-03-16T14:58:15.416Z,10.097
2024-03-16T14:59:30.513Z,10.057
2024-03-16T15:02:01.858Z,10.300
2024-03-16T15:03:11.420Z,10.337
2024-03-16T15:04:41.996Z,10.286
2024-03-16T15:05:49.479Z,10.473
2024-03-16T15:07:15.651Z,10.431
2024-03-16T15:08:18.788Z,10.562
2024-03-16T15:09:39.134Z,10.799
2024-03-16T15:10:52.736Z,11.184
2024-03-16T15:12:20.049Z,11.045
2024-03-16T15:13:42.427Z,11.026
2024-03-16T15:14:50.124Z,11.168
2024-03-16T15:15:54.109Z,11.154
2024-03-16T15:17:07.422Z,11.018
2024-03-16T15:19:59.490Z,10.583
2024-03-16T15:21:04.846Z,10.562
2024-03-16T15:22:40.817Z,10.623
2024-03-16T15:24:30.255Z,10.535
2024-03-16T15:24:59.034Z,10.500
2024-03-16T15:26:34.175Z,10.449
2024-03-16T15:27:50.181Z,10.383
2024-03-16T15:28:51.670Z,10.364
2024-03-16T15:31:27.734Z,10.388
2024-03-16T15:32:43.221Z,10.380
2024-03-16T15:33:47.425Z,10.391
2024-03-16T15:35:25.545Z,10.332
2024-03-16T15:37:17.168Z,10.351
2024-03-16T15:40:03.437Z,10.337
2024-03-16T15:41:18.163Z,10.383
2024-03-16T15:42:22.291Z,10.433
2024-03-16T15:45:40.711Z,10.377
2024-03-16T15:46:40.810Z,10.409
2024-03-16T15:47:41.338Z,10.524
2024-03-16T15:48:54.828Z,10.513
2024-03-16T15:50:19.573Z,10.495
2024-03-16T15:51:32.818Z,10.441
2024-03-16T15:55:22.973Z,10.583
2024-03-16T15:56:37.080Z,10.503
2024-03-16T16:01:08.663Z,10.700
2024-03-16T16:02:31.633Z,10.751
2024-03-16T16:04:18.180Z,10.895
2024-03-16T16:06:22.860Z,10.564
2024-03-16T16:07:23.105Z,10.578
2024-03-16T16:08:37.925Z,10.596
2024-03-16T16:09:47.789Z,10.607
2024-03-16T16:10:03.351Z,10.618
2024-03-16T16:11:29.609Z,10.452
2024-03-16T16:12:31.577Z,10.500
2024-03-16T16:14:00.340Z,10.540
2024-03-16T16:15:04.323Z,10.476
2024-03-16T16:16:03.952Z,10.554
2024-03-16T16:17:21.589Z,10.596
2024-03-16T16:18:24.794Z,10.564
2024-03-16T16:20:21.819Z,10.508
2024-03-16T16:23:03.946Z,10.543
2024-03-16T16:24:14.448Z,10.543
2024-03-16T16:26:59.297Z,10.428
2024-03-16T16:27:59.912Z,10.385
2024-03-16T16:30:42.824Z,10.292
2024-03-16T16:31:44.946Z,10.351
2024-03-16T16:33:08.536Z,10.273
2024-03-16T16:36:24.361Z,10.201
2024-03-16T16:37:24.326Z,10.204
2024-03-16T16:39:17.003Z,10.201
2024-03-16T16:40:18.612Z,10.129
2024-03-16T16:41:29.281Z,10.110
2024-03-16T16:46:12.434Z,10.100